Aérodrome :
LOGIN :

S'inscrire | Disclaimer

   EN    FR    IT 

 










Légende :    VFR   VFR Marginal   IFR   IFR Intensif   IFR Très Intensif
Visi : 
Plafond : 
>= 8 km
>= 3000ft
5 à 8 km
1000 à 3000 ft
1500m à 5 km
500 à 1000 ft
800 à 1500m
200 à 500 ft
< 800m
< 200 ft
Symboles :   Orages  Brouillard  Fortes neiges  Fortes précipitations  Vent > 20 kt
SIGMETs :   Divers  Orages  Givrage  Turbulence  Onde Orograph.  Cendres Volcan.







- Altitude de l'aérodrome : 144 ft
- Code IATA : PGF
- Voir les cartes d'approche


LFMP - Perpignan

DERNIER METAR :
  • 231600Z AUTO VRB02KT 6000 BKN009/// 13/10 Q1013 BECMG SCT007

METARs EXPIRÉS :
  • 231530Z AUTO VRB02KT 6000 BKN010/// 13/10 Q1013 BECMG SCT007
  • 231500Z AUTO 10004KT 060V130 7000 BKN010/// 13/10 Q1013 BECMG SCT007
  • 231430Z AUTO 08004KT 050V110 7000 BKN010/// 13/10 Q1014 BECMG SCT007
  • 231400Z AUTO 06006KT 030V100 8000 SCT009/// 13/10 Q1014 NOSIG
  • 231330Z AUTO 06006KT 030V090 9999 NCD 13/10 Q1014 NOSIG
  • 231300Z AUTO 07006KT 030V100 9999 NCD 14/10 Q1014 NOSIG

TAF TAF LFMP
Valide du 23 à 15h jusqu'au 24 à 15h UTC


231400Z 2315/2415 07008KT 9999 SCT007
TEMPO 2319/2322 VRB02KT 4000 BR BKN004
BECMG 2322/2324 31015KT CAVOK
TEMPO 2405/2412 32020G30KT
BECMG 2412/2414 31022G35KT BKN030
ATIS : +33 4 68 63 75 12
Pas de NOTAMs connus pour ce terrain.



MET'MAP, la Météo Aéronautique d'un coup d'oeil ! - Copyright ORBIFLY Décembre 2007 - Disclaimer

ORBIFLY MET'MAP TEAM :

Programmation & Développement : Alexandra Zaïnal
Conception & Développement : Baudouin d'Aumeries
Co-Programmation & Développement : Marc-Olivier Méhu
Soutien technique & logistique : Manuel Goepfert

Contact : metmap@orbifly.com




SOURCES & CREDITS :

   NOAA